createdAt,value
2023-01-20T00:04:07.720Z,75.68
2023-01-20T00:09:18.207Z,75.76
2023-01-20T00:14:25.352Z,75.84
2023-01-20T00:19:30.964Z,76.15
2023-01-20T00:24:36.576Z,76.48
2023-01-20T00:29:43.599Z,76.89
2023-01-20T00:34:49.002Z,77.20
2023-01-20T00:39:54.461Z,77.70
2023-01-20T00:45:00.433Z,77.50
2023-01-20T00:50:06.606Z,77.45
2023-01-20T00:55:12.450Z,77.58
2023-01-20T01:00:20.264Z,77.67
2023-01-20T01:05:25.927Z,77.81
2023-01-20T01:10:32.037Z,78.06
2023-01-20T01:15:38.561Z,78.19
2023-01-20T01:20:44.955Z,78.39
2023-01-20T01:25:50.486Z,78.45
2023-01-20T01:30:56.306Z,78.63
2023-01-20T01:36:03.997Z,78.78
2023-01-20T01:41:10.727Z,78.93
2023-01-20T01:46:16.189Z,78.80
2023-01-20T01:51:24.641Z,78.48
2023-01-20T01:56:31.835Z,78.79
2023-01-20T02:01:39.723Z,79.00
2023-01-20T02:06:50.889Z,79.18
2023-01-20T02:11:59.332Z,79.46
2023-01-20T02:17:07.765Z,79.69
2023-01-20T02:22:16.276Z,79.61
2023-01-20T02:27:34.925Z,79.61
2023-01-20T02:32:49.356Z,80.05
2023-01-20T02:38:06.409Z,80.19
2023-01-20T02:43:16.065Z,80.05
2023-01-20T02:48:27.298Z,80.64
2023-01-20T02:53:35.732Z,80.45
2023-01-20T02:58:53.345Z,80.42
2023-01-20T03:04:02.394Z,80.14
2023-01-20T03:09:10.876Z,80.30
2023-01-20T03:14:17.386Z,80.32
2023-01-20T03:19:22.995Z,80.23
2023-01-20T03:24:30.588Z,80.07
2023-01-20T03:29:36.323Z,79.85
2023-01-20T03:34:44.118Z,79.41
2023-01-20T03:39:50.051Z,79.17
2023-01-20T03:45:07.455Z,79.02
2023-01-20T03:50:39.697Z,78.89
2023-01-20T03:55:50.953Z,78.89
2023-01-20T04:00:57.881Z,78.65
2023-01-20T04:06:07.214Z,78.67
2023-01-20T04:11:12.769Z,78.38
2023-01-20T04:16:20.317Z,78.47
2023-01-20T04:21:38.063Z,78.42
2023-01-20T04:26:43.729Z,78.65
2023-01-20T04:31:49.364Z,79.21
2023-01-20T04:36:54.955Z,78.96
2023-01-20T04:42:00.488Z,79.40
2023-01-20T04:47:06.131Z,79.40
2023-01-20T04:52:11.641Z,79.69
2023-01-20T04:57:17.108Z,79.42
2023-01-20T05:02:22.779Z,79.16
2023-01-20T05:07:28.481Z,80.08
2023-01-20T05:12:33.937Z,80.31
2023-01-20T05:17:39.321Z,80.50
2023-01-20T05:22:44.705Z,80.03
2023-01-20T05:27:50.088Z,80.42
2023-01-20T05:32:55.608Z,80.09
2023-01-20T05:38:01.116Z,79.94
2023-01-20T05:43:06.574Z,79.58
2023-01-20T05:48:12.048Z,79.41
2023-01-20T05:53:17.831Z,80.21
2023-01-20T05:58:23.363Z,79.74
2023-01-20T06:03:28.796Z,79.85
2023-01-20T06:08:34.434Z,80.12
2023-01-20T06:13:39.930Z,80.59
2023-01-20T06:18:45.858Z,80.70
2023-01-20T06:23:51.412Z,80.78
2023-01-20T06:29:01.688Z,80.61
2023-01-20T06:34:07.051Z,80.91
2023-01-20T06:39:12.523Z,81.16
2023-01-20T06:44:18.139Z,81.87
2023-01-20T06:49:23.662Z,81.69
2023-01-20T06:54:29.014Z,81.29
2023-01-20T06:59:34.472Z,79.88
2023-01-20T07:04:39.978Z,81.05
2023-01-20T07:09:45.366Z,80.91
2023-01-20T07:14:50.965Z,80.58
2023-01-20T07:19:56.441Z,81.10
2023-01-20T07:25:01.885Z,80.82
2023-01-20T07:30:08.596Z,81.17
2023-01-20T07:35:14.361Z,81.62
2023-01-20T07:40:20.228Z,81.56
2023-01-20T07:45:26.755Z,81.51
2023-01-20T07:50:32.261Z,81.50
2023-01-20T07:55:37.824Z,81.36
2023-01-20T08:00:43.473Z,81.89
2023-01-20T08:05:49.085Z,81.54
2023-01-20T08:10:58.510Z,80.71
2023-01-20T08:16:05.945Z,81.00
2023-01-20T08:21:14.377Z,81.04
2023-01-20T08:26:20.173Z,81.13
2023-01-20T08:31:26.201Z,80.50
2023-01-20T08:36:34.607Z,80.46
2023-01-20T08:41:42.685Z,80.32
2023-01-20T08:46:49.940Z,80.89
2023-01-20T08:51:56.388Z,80.39
2023-01-20T08:57:02.023Z,80.88
2023-01-20T09:02:07.767Z,80.13
2023-01-20T09:07:14.226Z,80.39
2023-01-20T09:12:19.682Z,80.68
2023-01-20T09:17:25.177Z,79.67
2023-01-20T09:22:30.550Z,79.36
2023-01-20T09:27:36.068Z,79.89
2023-01-20T09:32:42.439Z,79.76
2023-01-20T09:38:06.695Z,79.34
2023-01-20T09:43:50.125Z,78.70
2023-01-20T09:49:38.019Z,78.48
2023-01-20T09:54:49.210Z,78.54
2023-01-20T09:59:57.769Z,79.01
2023-01-20T10:05:09.076Z,78.63
2023-01-20T10:10:20.302Z,77.69
2023-01-20T10:15:31.627Z,78.07
2023-01-20T10:20:48.875Z,77.48
2023-01-20T10:26:09.483Z,77.83
2023-01-20T10:31:19.841Z,77.67
2023-01-20T10:36:31.161Z,78.04
2023-01-20T10:41:48.684Z,78.35
2023-01-20T10:47:18.140Z,77.73
2023-01-20T10:52:44.712Z,78.14
2023-01-20T10:57:54.754Z,77.60
2023-01-20T11:03:03.120Z,77.39
2023-01-20T11:08:11.756Z,74.23
2023-01-20T11:13:17.840Z,75.52
2023-01-20T11:18:27.981Z,75.49
2023-01-20T11:23:39.249Z,75.58
2023-01-20T11:28:50.750Z,76.46
2023-01-20T11:33:58.675Z,76.56
2023-01-20T11:39:06.057Z,77.00
2023-01-20T11:44:14.714Z,77.05
2023-01-20T11:49:24.029Z,77.08
2023-01-20T11:54:30.957Z,75.99
2023-01-20T11:59:39.296Z,75.36
2023-01-20T12:05:10.155Z,75.04
2023-01-20T12:10:24.273Z,74.80
2023-01-20T12:15:33.049Z,74.97
2023-01-20T12:20:54.829Z,75.29
2023-01-20T12:26:00.711Z,74.22
2023-01-20T12:31:08.415Z,75.42
2023-01-20T12:36:25.913Z,75.43
2023-01-20T12:41:43.160Z,75.83
2023-01-20T12:46:51.670Z,75.29
2023-01-20T12:52:08.990Z,75.03
2023-01-20T12:57:32.956Z,76.02
2023-01-20T13:02:47.195Z,76.29
2023-01-20T13:08:20.677Z,75.59
2023-01-20T13:13:40.253Z,75.48
2023-01-20T13:18:54.200Z,74.14
2023-01-20T13:24:02.598Z,74.42
2023-01-20T13:29:09.558Z,74.56
2023-01-20T13:34:26.989Z,74.66
2023-01-20T13:39:44.564Z,74.59
2023-01-20T13:45:09.644Z,75.13
2023-01-20T13:50:38.687Z,76.01
2023-01-20T13:55:49.978Z,75.56
2023-01-20T14:01:06.467Z,74.32
2023-01-20T14:06:15.001Z,74.81
2023-01-20T14:11:23.191Z,75.08
2023-01-20T14:16:37.705Z,74.52
2023-01-20T14:21:44.211Z,75.87
2023-01-20T14:26:49.595Z,75.26
2023-01-20T14:31:55.270Z,75.91
2023-01-20T14:37:06.796Z,75.55
2023-01-20T14:42:15.234Z,75.62
2023-01-20T14:47:22.487Z,75.92
2023-01-20T14:52:32.021Z,75.92
2023-01-20T14:57:44.691Z,74.84
2023-01-20T15:03:10.164Z,75.04
2023-01-20T15:08:25.784Z,74.98
2023-01-20T15:13:31.322Z,75.19
2023-01-20T15:18:36.805Z,76.12
2023-01-20T15:23:43.904Z,76.51
2023-01-20T15:28:49.693Z,76.84
2023-01-20T15:33:55.247Z,76.12
2023-01-20T15:39:00.705Z,75.92
2023-01-20T15:44:06.338Z,76.08
2023-01-20T15:49:12.458Z,76.24
2023-01-20T15:54:17.934Z,76.44
2023-01-20T15:59:24.489Z,77.43
2023-01-20T16:04:31.692Z,77.05
2023-01-20T16:09:38.715Z,76.25
2023-01-20T16:14:44.349Z,77.08
2023-01-20T16:19:50.684Z,77.28
2023-01-20T16:24:56.227Z,75.89
2023-01-20T16:30:01.756Z,75.72
2023-01-20T16:35:07.908Z,76.38
2023-01-20T16:40:17.269Z,76.94
2023-01-20T16:45:31.611Z,76.97
2023-01-20T16:50:38.196Z,75.96
2023-01-20T16:55:48.461Z,76.14
2023-01-20T17:00:54.085Z,77.13
2023-01-20T17:05:59.517Z,76.25
2023-01-20T17:11:05.198Z,76.61
2023-01-20T17:16:10.663Z,76.67
2023-01-20T17:21:16.333Z,76.79
2023-01-20T17:26:22.940Z,76.55
2023-01-20T17:31:28.552Z,76.34
2023-01-20T17:36:35.019Z,76.12
2023-01-20T17:41:40.814Z,76.18
2023-01-20T17:46:47.797Z,76.02
2023-01-20T17:51:53.202Z,76.12
2023-01-20T17:56:59.130Z,75.98
2023-01-20T18:02:05.729Z,75.81
2023-01-20T18:07:11.622Z,75.46
2023-01-20T18:12:17.160Z,75.32
2023-01-20T18:17:23.010Z,75.30
2023-01-20T18:22:28.637Z,74.78
2023-01-20T18:27:34.194Z,75.26
2023-01-20T18:32:39.835Z,75.12
2023-01-20T18:37:45.458Z,75.55
2023-01-20T18:42:50.912Z,75.60
2023-01-20T18:47:56.457Z,75.12
2023-01-20T18:53:01.925Z,75.40
2023-01-20T18:58:09.241Z,75.46
2023-01-20T19:03:14.718Z,75.44
2023-01-20T19:08:20.303Z,75.39
2023-01-20T19:13:25.858Z,75.50
2023-01-20T19:18:31.523Z,75.65
2023-01-20T19:23:37.268Z,75.35
2023-01-20T19:28:43.025Z,75.37
2023-01-20T19:33:52.525Z,75.44
2023-01-20T19:38:58.934Z,75.27
2023-01-20T19:44:07.935Z,75.50
2023-01-20T19:49:13.985Z,75.20
2023-01-20T19:54:19.516Z,75.68
2023-01-20T19:59:25.286Z,75.53
2023-01-20T20:04:31.258Z,76.14
2023-01-20T20:09:37.823Z,75.71
2023-01-20T20:14:43.694Z,76.24
2023-01-20T20:19:49.225Z,76.43
2023-01-20T20:24:54.761Z,75.79
2023-01-20T20:30:01.434Z,76.02
2023-01-20T20:35:07.736Z,76.17
2023-01-20T20:40:14.600Z,76.62
2023-01-20T20:45:20.403Z,76.55
2023-01-20T20:50:27.528Z,76.36
2023-01-20T20:55:32.922Z,77.10
2023-01-20T21:00:39.072Z,77.25
2023-01-20T21:05:49.497Z,77.34
2023-01-20T21:10:55.057Z,77.72
2023-01-20T21:16:04.829Z,77.78
2023-01-20T21:21:13.719Z,77.64
2023-01-20T21:26:19.872Z,77.55
2023-01-20T21:31:26.972Z,77.40
2023-01-20T21:36:34.656Z,77.77
2023-01-20T21:41:40.630Z,77.74
2023-01-20T21:46:46.293Z,77.68
2023-01-20T21:52:09.879Z,77.80
2023-01-20T21:57:15.897Z,77.60
2023-01-20T22:02:21.898Z,77.67
2023-01-20T22:07:27.653Z,77.31
2023-01-20T22:12:34.871Z,77.29
2023-01-20T22:17:41.552Z,77.44
2023-01-20T22:22:47.743Z,77.45
2023-01-20T22:27:53.316Z,77.32
2023-01-20T22:32:58.924Z,77.21
2023-01-20T22:38:04.656Z,77.13
2023-01-20T22:43:10.207Z,77.06
2023-01-20T22:48:15.706Z,76.54
2023-01-20T22:53:21.276Z,76.37
2023-01-20T22:58:26.717Z,76.67
2023-01-20T23:03:32.321Z,76.82
2023-01-20T23:08:38.163Z,76.66
2023-01-20T23:13:44.228Z,76.82
2023-01-20T23:18:50.884Z,76.92
2023-01-20T23:23:56.334Z,76.92
2023-01-20T23:29:01.863Z,76.92
2023-01-20T23:34:07.337Z,76.72
2023-01-20T23:39:12.801Z,76.74
2023-01-20T23:44:18.263Z,76.80
2023-01-20T23:49:25.173Z,76.45
2023-01-20T23:54:30.702Z,76.27
2023-01-20T23:59:38.044Z,76.28
